Terminal Aerodrome Forecast
Issued by NWS Mt. Holly, NJ

Home | Current Version | Previous Version | Text Only | Print | Product List | Glossary On
Versions: 1 2 3 4 5 6 7 8 9 10 11 12 13 14 15 16 17
949
FTUS41 KPHI 281726
TAFTTN
TAF
KTTN 281726Z 2818/2918 18008KT P6SM FEW040
     FM290000 VRB03KT P6SM SKC
      TEMPO 2907/2911 3SM BR
     FM291400 30006KT P6SM SCT040=

USA.gov is the U.S. government's official web portal to all federal, state and local government web resources and services.